sensor_id;sensor_type;location;lat;lon;timestamp;P1;durP1;ratioP1;P2;durP2;ratioP2
24715;SDS011;12822;50.124;8.678;2022-11-20T00:02:20;39.15;;;20.02;;
24715;SDS011;12822;50.124;8.678;2022-11-20T00:04:46;30.17;;;18.75;;
24715;SDS011;12822;50.124;8.678;2022-11-20T00:07:12;35.75;;;19.25;;
24715;SDS011;12822;50.124;8.678;2022-11-20T00:09:37;34.08;;;19.50;;
24715;SDS011;12822;50.124;8.678;2022-11-20T00:12:04;32.10;;;18.85;;
24715;SDS011;12822;50.124;8.678;2022-11-20T00:14:30;35.00;;;18.08;;
24715;SDS011;12822;50.124;8.678;2022-11-20T00:16:56;35.03;;;19.05;;
24715;SDS011;12822;50.124;8.678;2022-11-20T00:19:22;34.65;;;19.52;;
24715;SDS011;12822;50.124;8.678;2022-11-20T00:21:48;36.03;;;19.65;;
24715;SDS011;12822;50.124;8.678;2022-11-20T00:24:16;31.30;;;18.55;;
24715;SDS011;12822;50.124;8.678;2022-11-20T00:26:42;31.90;;;19.77;;
24715;SDS011;12822;50.124;8.678;2022-11-20T00:29:08;38.58;;;20.13;;
24715;SDS011;12822;50.124;8.678;2022-11-20T00:31:35;30.50;;;18.00;;
24715;SDS011;12822;50.124;8.678;2022-11-20T00:34:01;33.25;;;19.92;;
24715;SDS011;12822;50.124;8.678;2022-11-20T00:36:28;35.60;;;20.65;;
24715;SDS011;12822;50.124;8.678;2022-11-20T00:38:55;32.30;;;18.42;;
24715;SDS011;12822;50.124;8.678;2022-11-20T00:41:21;33.08;;;19.35;;
24715;SDS011;12822;50.124;8.678;2022-11-20T00:43:47;33.63;;;19.17;;
24715;SDS011;12822;50.124;8.678;2022-11-20T00:46:15;32.85;;;19.05;;
24715;SDS011;12822;50.124;8.678;2022-11-20T00:48:41;30.35;;;18.08;;
24715;SDS011;12822;50.124;8.678;2022-11-20T00:51:07;31.42;;;19.30;;
24715;SDS011;12822;50.124;8.678;2022-11-20T00:53:33;32.05;;;18.38;;
24715;SDS011;12822;50.124;8.678;2022-11-20T00:56:00;33.33;;;20.08;;
24715;SDS011;12822;50.124;8.678;2022-11-20T00:58:33;30.92;;;19.33;;
24715;SDS011;12822;50.124;8.678;2022-11-20T01:01:09;31.88;;;18.08;;
24715;SDS011;12822;50.124;8.678;2022-11-20T01:03:36;35.72;;;19.15;;
24715;SDS011;12822;50.124;8.678;2022-11-20T01:06:03;34.30;;;18.98;;
24715;SDS011;12822;50.124;8.678;2022-11-20T01:08:30;32.55;;;19.13;;
24715;SDS011;12822;50.124;8.678;2022-11-20T01:11:00;30.20;;;19.25;;
24715;SDS011;12822;50.124;8.678;2022-11-20T01:13:27;33.28;;;19.70;;
24715;SDS011;12822;50.124;8.678;2022-11-20T01:19:01;31.00;;;19.10;;
24715;SDS011;12822;50.124;8.678;2022-11-20T01:21:28;32.35;;;18.55;;
24715;SDS011;12822;50.124;8.678;2022-11-20T01:23:54;31.95;;;19.65;;
24715;SDS011;12822;50.124;8.678;2022-11-20T01:26:23;34.35;;;19.23;;
24715;SDS011;12822;50.124;8.678;2022-11-20T01:28:49;32.30;;;19.20;;
24715;SDS011;12822;50.124;8.678;2022-11-20T01:31:16;37.75;;;21.10;;
24715;SDS011;12822;50.124;8.678;2022-11-20T01:33:43;34.78;;;19.58;;
24715;SDS011;12822;50.124;8.678;2022-11-20T01:36:10;33.13;;;19.95;;
24715;SDS011;12822;50.124;8.678;2022-11-20T01:38:36;33.53;;;20.58;;
24715;SDS011;12822;50.124;8.678;2022-11-20T01:41:02;34.70;;;20.67;;
24715;SDS011;12822;50.124;8.678;2022-11-20T01:43:28;34.33;;;21.05;;
24715;SDS011;12822;50.124;8.678;2022-11-20T01:45:58;35.83;;;20.92;;
24715;SDS011;12822;50.124;8.678;2022-11-20T01:48:26;38.65;;;21.88;;
24715;SDS011;12822;50.124;8.678;2022-11-20T01:50:54;37.83;;;21.02;;
24715;SDS011;12822;50.124;8.678;2022-11-20T01:53:21;36.85;;;21.95;;
24715;SDS011;12822;50.124;8.678;2022-11-20T01:55:50;36.08;;;21.77;;
24715;SDS011;12822;50.124;8.678;2022-11-20T01:58:18;42.42;;;22.33;;
24715;SDS011;12822;50.124;8.678;2022-11-20T02:00:45;40.50;;;21.98;;
24715;SDS011;12822;50.124;8.678;2022-11-20T02:03:13;41.38;;;22.50;;
24715;SDS011;12822;50.124;8.678;2022-11-20T02:05:59;40.95;;;23.55;;
24715;SDS011;12822;50.124;8.678;2022-11-20T02:08:26;38.45;;;22.30;;
24715;SDS011;12822;50.124;8.678;2022-11-20T02:10:53;38.28;;;21.88;;
24715;SDS011;12822;50.124;8.678;2022-11-20T02:13:19;37.97;;;22.77;;
24715;SDS011;12822;50.124;8.678;2022-11-20T02:16:04;37.75;;;23.13;;
24715;SDS011;12822;50.124;8.678;2022-11-20T02:18:31;39.05;;;22.02;;
24715;SDS011;12822;50.124;8.678;2022-11-20T02:21:03;41.85;;;22.33;;
24715;SDS011;12822;50.124;8.678;2022-11-20T02:25:58;40.47;;;23.25;;
24715;SDS011;12822;50.124;8.678;2022-11-20T02:28:25;38.22;;;21.33;;
24715;SDS011;12822;50.124;8.678;2022-11-20T02:30:51;38.28;;;22.05;;
24715;SDS011;12822;50.124;8.678;2022-11-20T02:33:17;35.35;;;21.23;;
24715;SDS011;12822;50.124;8.678;2022-11-20T02:35:45;33.55;;;19.88;;
24715;SDS011;12822;50.124;8.678;2022-11-20T02:38:12;36.78;;;21.77;;
24715;SDS011;12822;50.124;8.678;2022-11-20T02:40:38;34.25;;;21.60;;
24715;SDS011;12822;50.124;8.678;2022-11-20T02:43:04;36.75;;;22.02;;
24715;SDS011;12822;50.124;8.678;2022-11-20T02:45:30;34.63;;;20.60;;
24715;SDS011;12822;50.124;8.678;2022-11-20T02:47:56;35.38;;;20.58;;
24715;SDS011;12822;50.124;8.678;2022-11-20T02:50:22;36.05;;;20.95;;
24715;SDS011;12822;50.124;8.678;2022-11-20T02:52:48;33.42;;;19.88;;
24715;SDS011;12822;50.124;8.678;2022-11-20T02:55:14;38.20;;;21.33;;
24715;SDS011;12822;50.124;8.678;2022-11-20T02:57:40;37.92;;;21.55;;
24715;SDS011;12822;50.124;8.678;2022-11-20T03:00:06;33.97;;;20.38;;
24715;SDS011;12822;50.124;8.678;2022-11-20T03:02:33;36.05;;;21.42;;
24715;SDS011;12822;50.124;8.678;2022-11-20T03:04:59;36.83;;;20.77;;
24715;SDS011;12822;50.124;8.678;2022-11-20T03:07:25;33.75;;;20.40;;
24715;SDS011;12822;50.124;8.678;2022-11-20T03:09:51;42.40;;;21.38;;
24715;SDS011;12822;50.124;8.678;2022-11-20T03:12:16;34.55;;;21.02;;
24715;SDS011;12822;50.124;8.678;2022-11-20T03:14:42;33.22;;;20.88;;
24715;SDS011;12822;50.124;8.678;2022-11-20T03:17:08;36.72;;;20.75;;
24715;SDS011;12822;50.124;8.678;2022-11-20T03:19:34;35.88;;;21.05;;
24715;SDS011;12822;50.124;8.678;2022-11-20T03:22:00;38.92;;;21.98;;
24715;SDS011;12822;50.124;8.678;2022-11-20T03:24:26;38.08;;;21.60;;
24715;SDS011;12822;50.124;8.678;2022-11-20T03:26:52;38.50;;;21.40;;
24715;SDS011;12822;50.124;8.678;2022-11-20T03:29:18;38.78;;;22.10;;
24715;SDS011;12822;50.124;8.678;2022-11-20T03:31:44;38.65;;;23.13;;
24715;SDS011;12822;50.124;8.678;2022-11-20T03:34:11;39.03;;;23.75;;
24715;SDS011;12822;50.124;8.678;2022-11-20T03:36:38;40.95;;;23.52;;
24715;SDS011;12822;50.124;8.678;2022-11-20T03:39:04;41.00;;;23.20;;
24715;SDS011;12822;50.124;8.678;2022-11-20T03:41:31;41.75;;;24.33;;
24715;SDS011;12822;50.124;8.678;2022-11-20T03:43:58;44.05;;;24.52;;
24715;SDS011;12822;50.124;8.678;2022-11-20T03:46:24;40.67;;;23.13;;
24715;SDS011;12822;50.124;8.678;2022-11-20T03:48:50;41.63;;;24.27;;
24715;SDS011;12822;50.124;8.678;2022-11-20T03:51:18;41.85;;;24.45;;
24715;SDS011;12822;50.124;8.678;2022-11-20T03:53:45;41.63;;;23.83;;
24715;SDS011;12822;50.124;8.678;2022-11-20T03:56:12;43.60;;;24.55;;
24715;SDS011;12822;50.124;8.678;2022-11-20T03:58:39;45.03;;;24.75;;
24715;SDS011;12822;50.124;8.678;2022-11-20T04:01:08;40.40;;;22.60;;
24715;SDS011;12822;50.124;8.678;2022-11-20T04:03:35;42.08;;;24.20;;
24715;SDS011;12822;50.124;8.678;2022-11-20T04:06:05;42.17;;;23.52;;
24715;SDS011;12822;50.124;8.678;2022-11-20T04:08:31;37.90;;;21.77;;
24715;SDS011;12822;50.124;8.678;2022-11-20T04:11:07;39.70;;;22.92;;
24715;SDS011;12822;50.124;8.678;2022-11-20T04:13:33;43.15;;;23.00;;
24715;SDS011;12822;50.124;8.678;2022-11-20T04:15:59;41.15;;;23.20;;
24715;SDS011;12822;50.124;8.678;2022-11-20T04:18:25;40.00;;;22.35;;
24715;SDS011;12822;50.124;8.678;2022-11-20T04:20:51;39.25;;;23.42;;
24715;SDS011;12822;50.124;8.678;2022-11-20T04:23:17;43.50;;;23.27;;
24715;SDS011;12822;50.124;8.678;2022-11-20T04:25:43;41.15;;;22.77;;
24715;SDS011;12822;50.124;8.678;2022-11-20T04:28:09;37.78;;;22.45;;
24715;SDS011;12822;50.124;8.678;2022-11-20T04:30:35;40.38;;;22.67;;
24715;SDS011;12822;50.124;8.678;2022-11-20T04:33:01;39.20;;;21.92;;
24715;SDS011;12822;50.124;8.678;2022-11-20T04:35:27;41.55;;;23.33;;
24715;SDS011;12822;50.124;8.678;2022-11-20T04:37:52;40.20;;;23.70;;
24715;SDS011;12822;50.124;8.678;2022-11-20T04:40:18;39.03;;;21.98;;
24715;SDS011;12822;50.124;8.678;2022-11-20T04:42:44;42.10;;;22.02;;
24715;SDS011;12822;50.124;8.678;2022-11-20T04:45:11;41.42;;;22.70;;
24715;SDS011;12822;50.124;8.678;2022-11-20T04:47:37;37.15;;;21.48;;
24715;SDS011;12822;50.124;8.678;2022-11-20T04:50:03;42.83;;;22.55;;
24715;SDS011;12822;50.124;8.678;2022-11-20T04:52:29;37.60;;;21.17;;
24715;SDS011;12822;50.124;8.678;2022-11-20T04:54:55;38.63;;;22.45;;
24715;SDS011;12822;50.124;8.678;2022-11-20T04:57:21;38.88;;;22.38;;
24715;SDS011;12822;50.124;8.678;2022-11-20T04:59:47;40.35;;;21.92;;
24715;SDS011;12822;50.124;8.678;2022-11-20T05:02:13;40.05;;;22.33;;
24715;SDS011;12822;50.124;8.678;2022-11-20T05:04:39;42.97;;;22.98;;
24715;SDS011;12822;50.124;8.678;2022-11-20T05:07:05;37.15;;;22.38;;
24715;SDS011;12822;50.124;8.678;2022-11-20T05:09:31;39.47;;;23.13;;
24715;SDS011;12822;50.124;8.678;2022-11-20T05:11:57;37.95;;;21.83;;
24715;SDS011;12822;50.124;8.678;2022-11-20T05:14:23;37.05;;;22.13;;
24715;SDS011;12822;50.124;8.678;2022-11-20T05:16:48;40.75;;;24.00;;
24715;SDS011;12822;50.124;8.678;2022-11-20T05:19:14;39.08;;;21.60;;
24715;SDS011;12822;50.124;8.678;2022-11-20T05:21:40;36.67;;;21.52;;
24715;SDS011;12822;50.124;8.678;2022-11-20T05:24:06;40.85;;;22.52;;
24715;SDS011;12822;50.124;8.678;2022-11-20T05:26:32;39.17;;;22.48;;
24715;SDS011;12822;50.124;8.678;2022-11-20T05:28:58;41.92;;;23.50;;
24715;SDS011;12822;50.124;8.678;2022-11-20T05:31:24;42.53;;;23.42;;
24715;SDS011;12822;50.124;8.678;2022-11-20T05:33:50;43.38;;;23.38;;
24715;SDS011;12822;50.124;8.678;2022-11-20T05:36:16;41.47;;;22.42;;
24715;SDS011;12822;50.124;8.678;2022-11-20T05:38:43;43.85;;;23.77;;
24715;SDS011;12822;50.124;8.678;2022-11-20T05:41:13;42.10;;;22.67;;
24715;SDS011;12822;50.124;8.678;2022-11-20T05:43:40;46.40;;;24.07;;
24715;SDS011;12822;50.124;8.678;2022-11-20T05:46:07;44.72;;;23.83;;
24715;SDS011;12822;50.124;8.678;2022-11-20T05:48:33;44.22;;;24.85;;
24715;SDS011;12822;50.124;8.678;2022-11-20T05:51:00;47.05;;;25.33;;
24715;SDS011;12822;50.124;8.678;2022-11-20T05:53:26;43.30;;;23.00;;
24715;SDS011;12822;50.124;8.678;2022-11-20T05:55:56;42.13;;;23.92;;
24715;SDS011;12822;50.124;8.678;2022-11-20T05:58:22;43.92;;;23.98;;
24715;SDS011;12822;50.124;8.678;2022-11-20T06:00:48;44.28;;;23.02;;
24715;SDS011;12822;50.124;8.678;2022-11-20T06:03:14;44.40;;;24.15;;
24715;SDS011;12822;50.124;8.678;2022-11-20T06:05:40;43.03;;;23.33;;
24715;SDS011;12822;50.124;8.678;2022-11-20T06:08:06;42.63;;;23.52;;
24715;SDS011;12822;50.124;8.678;2022-11-20T06:10:32;41.53;;;23.48;;
24715;SDS011;12822;50.124;8.678;2022-11-20T06:12:58;43.30;;;23.35;;
24715;SDS011;12822;50.124;8.678;2022-11-20T06:15:24;50.20;;;24.27;;
24715;SDS011;12822;50.124;8.678;2022-11-20T06:17:53;49.03;;;23.58;;
24715;SDS011;12822;50.124;8.678;2022-11-20T06:20:22;48.17;;;24.48;;
24715;SDS011;12822;50.124;8.678;2022-11-20T06:22:48;51.10;;;24.38;;
24715;SDS011;12822;50.124;8.678;2022-11-20T06:25:14;44.47;;;23.08;;
24715;SDS011;12822;50.124;8.678;2022-11-20T06:27:40;54.50;;;25.00;;
24715;SDS011;12822;50.124;8.678;2022-11-20T06:30:06;48.13;;;24.15;;
24715;SDS011;12822;50.124;8.678;2022-11-20T06:32:33;48.58;;;24.08;;
24715;SDS011;12822;50.124;8.678;2022-11-20T06:34:58;53.90;;;25.27;;
24715;SDS011;12822;50.124;8.678;2022-11-20T06:37:24;54.40;;;26.63;;
24715;SDS011;12822;50.124;8.678;2022-11-20T06:39:50;50.08;;;25.75;;
24715;SDS011;12822;50.124;8.678;2022-11-20T06:42:16;54.97;;;26.33;;
24715;SDS011;12822;50.124;8.678;2022-11-20T06:44:43;50.58;;;25.40;;
24715;SDS011;12822;50.124;8.678;2022-11-20T06:47:09;59.72;;;26.35;;
24715;SDS011;12822;50.124;8.678;2022-11-20T06:49:35;54.38;;;26.60;;
24715;SDS011;12822;50.124;8.678;2022-11-20T06:52:02;48.67;;;25.30;;
24715;SDS011;12822;50.124;8.678;2022-11-20T06:54:28;56.75;;;26.48;;
24715;SDS011;12822;50.124;8.678;2022-11-20T06:56:53;56.88;;;25.20;;
24715;SDS011;12822;50.124;8.678;2022-11-20T06:59:19;53.50;;;25.13;;
24715;SDS011;12822;50.124;8.678;2022-11-20T07:01:46;59.65;;;27.25;;
24715;SDS011;12822;50.124;8.678;2022-11-20T07:04:12;53.70;;;26.08;;
24715;SDS011;12822;50.124;8.678;2022-11-20T07:06:38;53.10;;;25.70;;
24715;SDS011;12822;50.124;8.678;2022-11-20T07:09:04;61.88;;;26.67;;
24715;SDS011;12822;50.124;8.678;2022-11-20T07:11:30;65.63;;;28.25;;
24715;SDS011;12822;50.124;8.678;2022-11-20T07:13:56;67.80;;;29.65;;
24715;SDS011;12822;50.124;8.678;2022-11-20T07:16:22;69.95;;;28.33;;
24715;SDS011;12822;50.124;8.678;2022-11-20T07:18:48;59.88;;;27.30;;
24715;SDS011;12822;50.124;8.678;2022-11-20T07:21:14;64.00;;;28.77;;
24715;SDS011;12822;50.124;8.678;2022-11-20T07:23:40;61.22;;;27.92;;
24715;SDS011;12822;50.124;8.678;2022-11-20T07:26:07;69.10;;;29.48;;
24715;SDS011;12822;50.124;8.678;2022-11-20T07:28:33;72.03;;;29.98;;
24715;SDS011;12822;50.124;8.678;2022-11-20T07:30:59;77.13;;;31.45;;
24715;SDS011;12822;50.124;8.678;2022-11-20T07:33:25;64.22;;;29.63;;
24715;SDS011;12822;50.124;8.678;2022-11-20T07:35:51;64.22;;;29.10;;
24715;SDS011;12822;50.124;8.678;2022-11-20T07:38:17;62.08;;;27.33;;
24715;SDS011;12822;50.124;8.678;2022-11-20T07:40:43;64.63;;;28.35;;
24715;SDS011;12822;50.124;8.678;2022-11-20T07:43:09;63.88;;;28.52;;
24715;SDS011;12822;50.124;8.678;2022-11-20T07:45:39;65.47;;;29.02;;
24715;SDS011;12822;50.124;8.678;2022-11-20T07:48:08;64.07;;;29.05;;
24715;SDS011;12822;50.124;8.678;2022-11-20T07:50:34;64.30;;;28.75;;
24715;SDS011;12822;50.124;8.678;2022-11-20T07:53:01;66.82;;;29.85;;
24715;SDS011;12822;50.124;8.678;2022-11-20T07:55:27;62.03;;;28.85;;
24715;SDS011;12822;50.124;8.678;2022-11-20T07:57:56;64.45;;;28.23;;
24715;SDS011;12822;50.124;8.678;2022-11-20T08:00:23;69.00;;;30.77;;
24715;SDS011;12822;50.124;8.678;2022-11-20T08:02:49;63.58;;;29.48;;
24715;SDS011;12822;50.124;8.678;2022-11-20T08:05:15;58.50;;;28.23;;
24715;SDS011;12822;50.124;8.678;2022-11-20T08:07:41;61.92;;;28.80;;
24715;SDS011;12822;50.124;8.678;2022-11-20T08:10:09;56.50;;;28.02;;
24715;SDS011;12822;50.124;8.678;2022-11-20T08:12:35;65.70;;;29.42;;
24715;SDS011;12822;50.124;8.678;2022-11-20T08:15:19;60.42;;;29.35;;
24715;SDS011;12822;50.124;8.678;2022-11-20T08:17:46;62.92;;;30.38;;
24715;SDS011;12822;50.124;8.678;2022-11-20T08:20:12;56.85;;;27.05;;
24715;SDS011;12822;50.124;8.678;2022-11-20T08:22:38;58.50;;;27.33;;
24715;SDS011;12822;50.124;8.678;2022-11-20T08:25:04;63.90;;;28.95;;
24715;SDS011;12822;50.124;8.678;2022-11-20T08:27:31;63.90;;;27.85;;
24715;SDS011;12822;50.124;8.678;2022-11-20T08:29:57;61.47;;;28.88;;
24715;SDS011;12822;50.124;8.678;2022-11-20T08:32:23;60.83;;;28.92;;
24715;SDS011;12822;50.124;8.678;2022-11-20T08:34:49;60.20;;;27.50;;
24715;SDS011;12822;50.124;8.678;2022-11-20T08:37:15;58.33;;;28.15;;
24715;SDS011;12822;50.124;8.678;2022-11-20T08:39:41;57.28;;;28.02;;
24715;SDS011;12822;50.124;8.678;2022-11-20T08:42:07;61.38;;;29.27;;
24715;SDS011;12822;50.124;8.678;2022-11-20T08:44:33;59.65;;;28.77;;
24715;SDS011;12822;50.124;8.678;2022-11-20T08:46:59;64.28;;;29.13;;
24715;SDS011;12822;50.124;8.678;2022-11-20T08:49:25;65.85;;;29.08;;
24715;SDS011;12822;50.124;8.678;2022-11-20T08:51:51;64.68;;;29.85;;
24715;SDS011;12822;50.124;8.678;2022-11-20T08:54:20;54.75;;;29.30;;
24715;SDS011;12822;50.124;8.678;2022-11-20T08:56:47;64.97;;;31.50;;
24715;SDS011;12822;50.124;8.678;2022-11-20T08:59:12;55.45;;;28.88;;
24715;SDS011;12822;50.124;8.678;2022-11-20T09:01:38;63.22;;;30.00;;
24715;SDS011;12822;50.124;8.678;2022-11-20T09:04:05;60.60;;;30.60;;
24715;SDS011;12822;50.124;8.678;2022-11-20T09:06:31;66.75;;;31.30;;
24715;SDS011;12822;50.124;8.678;2022-11-20T09:08:57;62.13;;;30.30;;
24715;SDS011;12822;50.124;8.678;2022-11-20T09:11:23;65.40;;;29.67;;
24715;SDS011;12822;50.124;8.678;2022-11-20T09:13:49;66.78;;;31.50;;
24715;SDS011;12822;50.124;8.678;2022-11-20T09:16:15;64.97;;;30.90;;
24715;SDS011;12822;50.124;8.678;2022-11-20T09:18:41;56.70;;;28.00;;
24715;SDS011;12822;50.124;8.678;2022-11-20T09:21:11;56.55;;;29.63;;
24715;SDS011;12822;50.124;8.678;2022-11-20T09:23:38;58.20;;;27.83;;
24715;SDS011;12822;50.124;8.678;2022-11-20T09:26:04;59.40;;;28.02;;
24715;SDS011;12822;50.124;8.678;2022-11-20T09:28:33;53.05;;;27.33;;
24715;SDS011;12822;50.124;8.678;2022-11-20T09:30:59;57.20;;;30.38;;
24715;SDS011;12822;50.124;8.678;2022-11-20T09:33:25;54.63;;;27.63;;
24715;SDS011;12822;50.124;8.678;2022-11-20T09:35:51;53.08;;;27.05;;
24715;SDS011;12822;50.124;8.678;2022-11-20T09:38:17;51.50;;;26.45;;
24715;SDS011;12822;50.124;8.678;2022-11-20T09:40:45;45.72;;;24.10;;
24715;SDS011;12822;50.124;8.678;2022-11-20T09:43:18;48.17;;;25.27;;
24715;SDS011;12822;50.124;8.678;2022-11-20T09:46:01;46.10;;;25.27;;
24715;SDS011;12822;50.124;8.678;2022-11-20T09:56:10;42.58;;;24.20;;
24715;SDS011;12822;50.124;8.678;2022-11-20T09:58:43;44.17;;;24.75;;
24715;SDS011;12822;50.124;8.678;2022-11-20T10:01:15;48.45;;;26.15;;
24715;SDS011;12822;50.124;8.678;2022-11-20T10:06:33;49.15;;;25.83;;
24715;SDS011;12822;50.124;8.678;2022-11-20T10:24:12;39.80;;;23.73;;
24715;SDS011;12822;50.124;8.678;2022-11-20T10:26:44;42.55;;;25.25;;
24715;SDS011;12822;50.124;8.678;2022-11-20T10:29:15;40.80;;;24.42;;
24715;SDS011;12822;50.124;8.678;2022-11-20T10:31:41;44.38;;;24.38;;
24715;SDS011;12822;50.124;8.678;2022-11-20T10:34:22;47.97;;;26.67;;
24715;SDS011;12822;50.124;8.678;2022-11-20T10:36:55;45.97;;;26.40;;
24715;SDS011;12822;50.124;8.678;2022-11-20T10:39:28;45.28;;;25.50;;
24715;SDS011;12822;50.124;8.678;2022-11-20T10:41:55;46.95;;;25.80;;
24715;SDS011;12822;50.124;8.678;2022-11-20T10:44:26;43.72;;;24.73;;
24715;SDS011;12822;50.124;8.678;2022-11-20T10:47:17;49.15;;;25.33;;
24715;SDS011;12822;50.124;8.678;2022-11-20T10:49:53;46.60;;;25.20;;
24715;SDS011;12822;50.124;8.678;2022-11-20T10:54:48;44.55;;;25.02;;
24715;SDS011;12822;50.124;8.678;2022-11-20T10:59:54;45.05;;;24.58;;
24715;SDS011;12822;50.124;8.678;2022-11-20T11:02:22;42.42;;;24.60;;
24715;SDS011;12822;50.124;8.678;2022-11-20T11:04:51;45.83;;;24.92;;
24715;SDS011;12822;50.124;8.678;2022-11-20T11:07:39;43.60;;;24.77;;
24715;SDS011;12822;50.124;8.678;2022-11-20T11:10:12;43.40;;;23.92;;
24715;SDS011;12822;50.124;8.678;2022-11-20T11:12:42;47.70;;;25.65;;
24715;SDS011;12822;50.124;8.678;2022-11-20T11:15:14;50.53;;;25.85;;
24715;SDS011;12822;50.124;8.678;2022-11-20T11:17:46;47.33;;;25.83;;
24715;SDS011;12822;50.124;8.678;2022-11-20T11:20:17;49.13;;;26.30;;
24715;SDS011;12822;50.124;8.678;2022-11-20T11:22:48;52.55;;;28.08;;
24715;SDS011;12822;50.124;8.678;2022-11-20T11:25:21;48.78;;;26.98;;
24715;SDS011;12822;50.124;8.678;2022-11-20T11:27:48;54.53;;;28.80;;
24715;SDS011;12822;50.124;8.678;2022-11-20T11:30:15;51.85;;;28.58;;
24715;SDS011;12822;50.124;8.678;2022-11-20T11:32:42;54.38;;;29.27;;
24715;SDS011;12822;50.124;8.678;2022-11-20T11:37:46;55.35;;;30.08;;
24715;SDS011;12822;50.124;8.678;2022-11-20T11:40:13;54.60;;;29.13;;
24715;SDS011;12822;50.124;8.678;2022-11-20T11:42:43;51.63;;;28.60;;
24715;SDS011;12822;50.124;8.678;2022-11-20T11:45:18;55.92;;;27.77;;
24715;SDS011;12822;50.124;8.678;2022-11-20T11:47:48;51.88;;;25.92;;
24715;SDS011;12822;50.124;8.678;2022-11-20T11:50:24;48.70;;;25.67;;
24715;SDS011;12822;50.124;8.678;2022-11-20T12:00:40;45.42;;;24.58;;
24715;SDS011;12822;50.124;8.678;2022-11-20T12:03:15;46.13;;;24.50;;
24715;SDS011;12822;50.124;8.678;2022-11-20T12:05:44;42.17;;;23.50;;
24715;SDS011;12822;50.124;8.678;2022-11-20T12:13:34;36.08;;;20.25;;
24715;SDS011;12822;50.124;8.678;2022-11-20T12:16:03;30.13;;;17.85;;
24715;SDS011;12822;50.124;8.678;2022-11-20T12:18:32;34.20;;;19.80;;
24715;SDS011;12822;50.124;8.678;2022-11-20T12:39:35;36.30;;;21.00;;
24715;SDS011;12822;50.124;8.678;2022-11-20T12:56:11;44.22;;;23.88;;
24715;SDS011;12822;50.124;8.678;2022-11-20T13:04:08;47.13;;;25.15;;
24715;SDS011;12822;50.124;8.678;2022-11-20T13:06:38;40.03;;;22.67;;
24715;SDS011;12822;50.124;8.678;2022-11-20T13:09:07;44.00;;;23.67;;
24715;SDS011;12822;50.124;8.678;2022-11-20T13:14:07;48.10;;;27.33;;
24715;SDS011;12822;50.124;8.678;2022-11-20T13:16:44;49.22;;;28.23;;
24715;SDS011;12822;50.124;8.678;2022-11-20T13:19:11;51.08;;;29.85;;
24715;SDS011;12822;50.124;8.678;2022-11-20T13:21:39;54.97;;;30.08;;
24715;SDS011;12822;50.124;8.678;2022-11-20T13:24:06;51.00;;;29.85;;
24715;SDS011;12822;50.124;8.678;2022-11-20T13:26:32;51.42;;;28.40;;
24715;SDS011;12822;50.124;8.678;2022-11-20T13:28:59;51.95;;;29.75;;
24715;SDS011;12822;50.124;8.678;2022-11-20T13:31:28;55.45;;;30.88;;
24715;SDS011;12822;50.124;8.678;2022-11-20T13:33:56;56.28;;;30.83;;
24715;SDS011;12822;50.124;8.678;2022-11-20T13:36:23;48.33;;;27.25;;
24715;SDS011;12822;50.124;8.678;2022-11-20T13:38:53;52.88;;;28.63;;
24715;SDS011;12822;50.124;8.678;2022-11-20T13:41:27;46.40;;;27.02;;
24715;SDS011;12822;50.124;8.678;2022-11-20T13:43:59;47.78;;;27.27;;
24715;SDS011;12822;50.124;8.678;2022-11-20T13:47:04;48.15;;;25.85;;
24715;SDS011;12822;50.124;8.678;2022-11-20T13:49:26;42.53;;;24.00;;
24715;SDS011;12822;50.124;8.678;2022-11-20T13:59:38;44.33;;;24.75;;
24715;SDS011;12822;50.124;8.678;2022-11-20T14:02:16;43.85;;;23.13;;
24715;SDS011;12822;50.124;8.678;2022-11-20T14:04:45;44.40;;;23.48;;
24715;SDS011;12822;50.124;8.678;2022-11-20T14:07:12;42.20;;;24.67;;
24715;SDS011;12822;50.124;8.678;2022-11-20T14:09:38;42.63;;;24.05;;
24715;SDS011;12822;50.124;8.678;2022-11-20T14:12:12;38.65;;;22.85;;
24715;SDS011;12822;50.124;8.678;2022-11-20T14:14:47;39.65;;;23.17;;
24715;SDS011;12822;50.124;8.678;2022-11-20T14:17:20;38.58;;;22.70;;
24715;SDS011;12822;50.124;8.678;2022-11-20T14:19:47;41.97;;;23.98;;
24715;SDS011;12822;50.124;8.678;2022-11-20T14:22:20;40.13;;;23.35;;
24715;SDS011;12822;50.124;8.678;2022-11-20T14:27:28;41.22;;;23.20;;
24715;SDS011;12822;50.124;8.678;2022-11-20T14:29:54;39.75;;;22.50;;
24715;SDS011;12822;50.124;8.678;2022-11-20T14:32:21;40.00;;;22.33;;
24715;SDS011;12822;50.124;8.678;2022-11-20T14:34:49;38.25;;;22.65;;
24715;SDS011;12822;50.124;8.678;2022-11-20T14:37:20;36.45;;;21.52;;
24715;SDS011;12822;50.124;8.678;2022-11-20T14:39:51;42.70;;;22.00;;
24715;SDS011;12822;50.124;8.678;2022-11-20T14:42:22;40.33;;;21.20;;
24715;SDS011;12822;50.124;8.678;2022-11-20T14:44:49;39.10;;;21.60;;
24715;SDS011;12822;50.124;8.678;2022-11-20T14:47:23;37.67;;;21.65;;
24715;SDS011;12822;50.124;8.678;2022-11-20T14:49:50;37.10;;;21.50;;
24715;SDS011;12822;50.124;8.678;2022-11-20T14:52:17;38.92;;;22.20;;
24715;SDS011;12822;50.124;8.678;2022-11-20T14:54:53;35.97;;;21.33;;
24715;SDS011;12822;50.124;8.678;2022-11-20T14:57:27;38.35;;;21.40;;
24715;SDS011;12822;50.124;8.678;2022-11-20T15:00:07;36.20;;;21.63;;
24715;SDS011;12822;50.124;8.678;2022-11-20T15:02:50;35.25;;;21.65;;
24715;SDS011;12822;50.124;8.678;2022-11-20T15:05:17;35.85;;;20.63;;
24715;SDS011;12822;50.124;8.678;2022-11-20T15:07:44;36.40;;;22.17;;
24715;SDS011;12822;50.124;8.678;2022-11-20T15:10:27;39.80;;;21.92;;
24715;SDS011;12822;50.124;8.678;2022-11-20T15:12:54;34.58;;;20.48;;
24715;SDS011;12822;50.124;8.678;2022-11-20T15:15:27;36.05;;;20.90;;
24715;SDS011;12822;50.124;8.678;2022-11-20T15:17:54;36.50;;;21.75;;
24715;SDS011;12822;50.124;8.678;2022-11-20T15:20:21;40.38;;;23.08;;
24715;SDS011;12822;50.124;8.678;2022-11-20T15:22:49;40.00;;;23.50;;
24715;SDS011;12822;50.124;8.678;2022-11-20T15:25:16;39.17;;;23.02;;
24715;SDS011;12822;50.124;8.678;2022-11-20T15:27:43;46.30;;;22.40;;
24715;SDS011;12822;50.124;8.678;2022-11-20T15:30:12;39.63;;;22.65;;
24715;SDS011;12822;50.124;8.678;2022-11-20T15:32:39;38.05;;;22.80;;
24715;SDS011;12822;50.124;8.678;2022-11-20T15:35:05;40.80;;;23.45;;
24715;SDS011;12822;50.124;8.678;2022-11-20T15:37:34;40.97;;;23.40;;
24715;SDS011;12822;50.124;8.678;2022-11-20T15:40:00;40.58;;;22.45;;
24715;SDS011;12822;50.124;8.678;2022-11-20T15:42:26;34.47;;;21.25;;
24715;SDS011;12822;50.124;8.678;2022-11-20T15:44:52;36.20;;;21.45;;
24715;SDS011;12822;50.124;8.678;2022-11-20T15:47:18;36.88;;;20.73;;
24715;SDS011;12822;50.124;8.678;2022-11-20T15:49:45;34.38;;;19.90;;
24715;SDS011;12822;50.124;8.678;2022-11-20T15:52:11;36.70;;;19.65;;
24715;SDS011;12822;50.124;8.678;2022-11-20T15:54:37;32.97;;;18.65;;
24715;SDS011;12822;50.124;8.678;2022-11-20T15:57:03;31.40;;;19.13;;
24715;SDS011;12822;50.124;8.678;2022-11-20T15:59:29;33.03;;;19.52;;
24715;SDS011;12822;50.124;8.678;2022-11-20T16:01:56;36.00;;;21.33;;
24715;SDS011;12822;50.124;8.678;2022-11-20T16:04:21;34.63;;;21.08;;
24715;SDS011;12822;50.124;8.678;2022-11-20T16:06:47;41.28;;;21.52;;
24715;SDS011;12822;50.124;8.678;2022-11-20T16:09:13;35.15;;;20.27;;